Time;durP1;ratioP1;P1;durP2;ratioP2;P2;SDS_P1;SDS_P2;PMS_P1;PMS_P2;Temp;Humidity;BMP_temperature;BMP_pressure;BME280_temperature;BME280_humidity;BME280_pressure;Samples;Min_cycle;Max_cycle;Signal;HPM_P1;HPM_P2
2024/01/13 00:00:09;;;;;;;24.30;13.80;;;;;;;0.05;67.26;99326.31;232150;196;138764;-64
2024/01/13 00:05:33;;;;;;;25.50;14.70;;;;;;;0.09;67.29;99329.92;231877;198;155954;-62
2024/01/13 00:10:36;;;;;;;29.00;15.50;;;;;;;-0.03;67.41;99318.92;231953;204;138041;-61
2024/01/13 00:15:39;;;;;;;25.10;14.10;;;;;;;-0.02;67.51;99322.22;231948;198;138785;-61
2024/01/13 00:20:43;;;;;;;29.30;15.60;;;;;;;-0.05;67.50;99312.66;231636;198;153920;-62
2024/01/13 00:25:46;;;;;;;29.50;15.00;;;;;;;-0.12;67.82;99319.59;232326;198;137513;-63
2024/01/13 00:30:49;;;;;;;30.40;15.40;;;;;;;-0.11;67.92;99319.04;232082;197;138025;-62
2024/01/13 00:35:53;;;;;;;28.10;16.40;;;;;;;-0.11;68.17;99317.99;231996;197;154447;-60
2024/01/13 00:40:56;;;;;;;29.80;15.50;;;;;;;-0.10;68.24;99317.11;231973;205;138585;-61
2024/01/13 00:45:59;;;;;;;28.70;16.60;;;;;;;-0.08;68.51;99322.14;232023;198;137750;-61
2024/01/13 00:51:04;;;;;;;32.20;17.70;;;;;;;0.03;68.44;99323.89;232059;198;153253;-61
2024/01/13 00:56:07;;;;;;;30.20;17.20;;;;;;;0.07;68.33;99312.67;231977;205;137839;-61
2024/01/13 01:01:13;;;;;;;30.30;18.20;;;;;;;0.05;68.39;99316.53;232173;198;137022;-60
2024/01/13 01:06:19;;;;;;;34.00;18.60;;;;;;;0.08;68.25;99324.16;232178;198;155048;-61
2024/01/13 01:11:24;;;;;;;29.90;17.60;;;;;;;0.05;68.36;99325.08;231944;201;138107;-60
2024/01/13 01:16:27;;;;;;;31.50;17.70;;;;;;;0.04;68.56;99318.48;232063;197;137335;-60
2024/01/13 01:21:31;;;;;;;30.40;16.30;;;;;;;0.07;68.49;99327.67;232028;198;152459;-64
2024/01/13 01:26:37;;;;;;;35.00;18.30;;;;;;;0.13;68.50;99324.27;231991;204;137799;-64
2024/01/13 01:31:45;;;;;;;30.60;17.60;;;;;;;0.16;68.50;99325.44;232139;198;138314;-65
2024/01/13 01:36:48;;;;;;;32.80;18.90;;;;;;;0.14;68.55;99322.17;232129;204;153361;-63
2024/01/13 01:41:52;;;;;;;34.60;19.10;;;;;;;0.13;68.67;99316.06;231966;198;137630;-65
2024/01/13 01:46:57;;;;;;;32.20;18.00;;;;;;;0.13;68.77;99306.29;231970;198;137465;-60
2024/01/13 01:52:01;;;;;;;28.40;16.20;;;;;;;0.30;68.35;99303.41;232135;204;154887;-62
2024/01/13 01:57:05;;;;;;;29.60;17.10;;;;;;;0.38;68.04;99308.52;232061;205;137508;-61
2024/01/13 02:02:08;;;;;;;26.90;15.30;;;;;;;0.47;67.81;99299.80;232257;204;137505;-60
2024/01/13 02:07:12;;;;;;;27.70;15.50;;;;;;;0.43;67.61;99302.86;232086;204;154235;-60
2024/01/13 02:12:15;;;;;;;24.10;14.30;;;;;;;0.39;67.67;99304.83;231951;198;138173;-61
2024/01/13 02:17:18;;;;;;;23.90;13.80;;;;;;;0.43;67.98;99300.59;232170;198;141814;-61
2024/01/13 02:22:21;;;;;;;24.30;13.80;;;;;;;0.41;68.03;99293.11;232199;198;153252;-61
2024/01/13 02:27:25;;;;;;;26.70;14.70;;;;;;;0.37;68.28;99285.66;231982;201;138717;-61
2024/01/13 02:32:28;;;;;;;20.70;13.40;;;;;;;0.33;68.43;99289.06;232260;201;138051;-62
2024/01/13 02:37:31;;;;;;;20.10;12.80;;;;;;;0.30;68.61;99288.58;231994;197;153694;-63
2024/01/13 02:42:38;;;;;;;23.80;13.30;;;;;;;0.30;69.00;99285.09;232014;201;137625;-59
2024/01/13 02:47:48;;;;;;;19.70;12.30;;;;;;;0.26;69.54;99278.52;231975;197;137690;-58
2024/01/13 02:52:51;;;;;;;21.60;13.80;;;;;;;0.30;69.67;99276.39;232025;204;153808;-61
2024/01/13 02:57:54;;;;;;;23.10;13.10;;;;;;;0.34;69.73;99275.08;232092;201;138050;-60
2024/01/13 03:02:58;;;;;;;18.10;12.10;;;;;;;0.43;69.87;99274.39;232158;204;137516;-62
2024/01/13 03:08:02;;;;;;;17.30;11.50;;;;;;;0.56;69.67;99266.49;232174;204;154789;-63
2024/01/13 03:13:05;;;;;;;17.30;11.10;;;;;;;0.57;69.58;99260.54;232036;201;137422;-61
2024/01/13 03:18:09;;;;;;;17.30;11.30;;;;;;;0.61;69.55;99264.30;232135;204;138084;-59
2024/01/13 03:23:20;;;;;;;15.70;11.80;;;;;;;0.64;69.45;99259.73;231986;198;154064;-61
2024/01/13 03:28:23;;;;;;;17.60;11.80;;;;;;;0.61;69.44;99254.53;231817;198;137815;-62
2024/01/13 03:33:41;;;;;;;16.70;11.60;;;;;;;0.54;69.66;99249.77;231903;202;137808;-62
2024/01/13 03:38:46;;;;;;;17.40;12.30;;;;;;;0.54;69.64;99235.29;232017;205;154211;-60
2024/01/13 03:43:50;;;;;;;15.00;11.20;;;;;;;0.55;69.82;99224.44;231899;198;138165;-61
2024/01/13 03:48:53;;;;;;;15.00;11.00;;;;;;;0.54;69.68;99216.94;231926;198;139579;-59
2024/01/13 03:53:56;;;;;;;14.20;11.40;;;;;;;0.55;69.54;99215.88;231582;198;153343;-57
2024/01/13 03:58:59;;;;;;;13.40;10.30;;;;;;;0.58;69.57;99202.74;232016;201;137364;-59
2024/01/13 04:04:03;;;;;;;16.40;10.40;;;;;;;0.58;69.51;99206.05;232126;205;137579;-56
2024/01/13 04:09:08;;;;;;;15.40;10.00;;;;;;;0.65;69.63;99203.29;231351;201;154148;-59
2024/01/13 04:14:11;;;;;;;13.00;9.80;;;;;;;0.73;69.26;99207.35;232027;201;137935;-61
2024/01/13 04:19:15;;;;;;;13.00;9.30;;;;;;;0.82;69.11;99208.56;231908;198;137746;-61
2024/01/13 04:24:19;;;;;;;15.30;10.50;;;;;;;0.93;68.83;99201.70;231865;205;153302;-61
2024/01/13 04:29:22;;;;;;;12.50;9.10;;;;;;;1.00;68.44;99209.08;231742;205;137230;-61
2024/01/13 04:34:25;;;;;;;13.90;9.30;;;;;;;0.96;68.59;99208.63;231803;205;157131;-60
2024/01/13 04:39:29;;;;;;;12.20;8.80;;;;;;;0.98;68.49;99204.55;231580;201;153256;-60
2024/01/13 04:44:32;;;;;;;11.60;8.60;;;;;;;0.95;68.45;99198.00;232127;198;137650;-60
2024/01/13 04:49:35;;;;;;;13.50;8.60;;;;;;;1.00;68.51;99193.36;231912;201;137403;-59
2024/01/13 04:54:39;;;;;;;13.10;9.20;;;;;;;0.99;68.48;99184.47;232071;204;153943;-59
2024/01/13 04:59:42;;;;;;;12.20;8.30;;;;;;;0.98;68.63;99175.23;232073;198;137950;-60
2024/01/13 05:04:45;;;;;;;10.70;7.30;;;;;;;1.03;68.52;99170.40;232063;201;137428;-61
2024/01/13 05:09:50;;;;;;;12.00;7.60;;;;;;;1.14;68.26;99166.83;231914;197;154439;-59
2024/01/13 05:14:53;;;;;;;11.50;8.10;;;;;;;1.19;68.12;99166.38;232050;201;137885;-60
2024/01/13 05:19:57;;;;;;;11.30;8.10;;;;;;;1.15;68.22;99161.23;232090;198;137860;-58
2024/01/13 05:25:00;;;;;;;14.10;9.00;;;;;;;1.28;68.18;99155.52;231884;198;153434;-58
2024/01/13 05:30:04;;;;;;;12.30;8.70;;;;;;;1.34;67.78;99152.77;231959;197;137476;-61
2024/01/13 05:35:08;;;;;;;13.00;9.00;;;;;;;1.32;67.64;99151.94;232055;204;137473;-59
2024/01/13 05:40:12;;;;;;;11.60;8.30;;;;;;;1.33;67.73;99158.02;232042;198;153152;-60
2024/01/13 05:45:16;;;;;;;13.10;9.10;;;;;;;1.32;67.68;99162.60;232086;198;137408;-60
2024/01/13 05:50:20;;;;;;;13.50;8.70;;;;;;;1.32;67.74;99167.30;232256;204;138041;-62
2024/01/13 05:55:23;;;;;;;13.60;9.40;;;;;;;1.32;67.55;99169.41;231993;201;153698;-60
2024/01/13 06:00:27;;;;;;;13.10;8.90;;;;;;;1.37;67.78;99174.89;232002;204;139059;-61
2024/01/13 06:05:31;;;;;;;13.70;9.20;;;;;;;1.37;67.59;99171.91;232165;204;137762;-60
2024/01/13 06:10:35;;;;;;;11.90;8.10;;;;;;;1.39;67.65;99174.13;232051;204;153435;-60
2024/01/13 06:15:38;;;;;;;12.30;8.20;;;;;;;1.46;67.54;99181.16;231904;204;137650;-61
2024/01/13 06:20:41;;;;;;;13.70;8.40;;;;;;;1.54;67.38;99183.06;231979;198;138078;-62
2024/01/13 06:25:45;;;;;;;12.90;8.70;;;;;;;1.59;67.30;99179.11;231915;205;152971;-62
2024/01/13 06:30:48;;;;;;;11.90;8.60;;;;;;;1.59;67.20;99174.73;231971;201;138283;-62
2024/01/13 06:35:51;;;;;;;14.40;9.00;;;;;;;1.61;67.32;99172.24;231949;201;137684;-62
2024/01/13 06:40:55;;;;;;;18.10;9.40;;;;;;;1.61;67.23;99169.08;232029;204;153360;-61
2024/01/13 06:45:58;;;;;;;15.30;9.40;;;;;;;1.65;67.30;99166.70;232000;204;139506;-61
2024/01/13 06:51:02;;;;;;;12.80;9.50;;;;;;;1.71;67.14;99167.27;232282;204;137250;-60
2024/01/13 06:56:05;;;;;;;13.20;9.70;;;;;;;1.74;67.09;99167.91;232220;204;158486;-60
2024/01/13 07:01:12;;;;;;;13.00;9.20;;;;;;;1.72;66.97;99167.62;232034;198;138282;-61
2024/01/13 07:06:16;;;;;;;15.90;9.60;;;;;;;1.70;66.97;99165.73;231916;197;137207;-60
2024/01/13 07:11:19;;;;;;;14.00;9.60;;;;;;;1.68;67.09;99157.21;231919;197;153255;-61
2024/01/13 07:16:22;;;;;;;13.60;9.30;;;;;;;1.68;67.33;99153.36;232049;198;138227;-61
2024/01/13 07:21:25;;;;;;;13.80;8.90;;;;;;;1.73;67.34;99156.91;231988;198;139679;-62
2024/01/13 07:26:29;;;;;;;12.80;9.70;;;;;;;1.84;67.17;99163.10;232051;205;153379;-61
2024/01/13 07:31:32;;;;;;;14.00;9.60;;;;;;;1.95;66.93;99162.65;231785;198;137051;-59
2024/01/13 07:36:36;;;;;;;14.20;9.80;;;;;;;2.03;66.81;99157.58;231992;198;137807;-56
2024/01/13 07:41:39;;;;;;;12.50;8.80;;;;;;;2.11;66.70;99156.98;232100;198;153304;-59
2024/01/13 07:46:43;;;;;;;207.50;136.30;;;;;;;2.13;66.79;99159.41;232018;204;136908;-59
2024/01/13 07:51:50;;;;;;;18.70;11.90;;;;;;;2.17;66.65;99158.27;231964;197;138747;-60
2024/01/13 07:56:53;;;;;;;18.00;10.60;;;;;;;2.13;66.64;99152.91;231727;204;153096;-59
2024/01/13 08:01:57;;;;;;;14.70;9.40;;;;;;;2.11;66.79;99153.33;231694;199;139245;-60
2024/01/13 08:07:00;;;;;;;16.30;9.60;;;;;;;2.12;66.79;99151.03;232051;197;141720;-58
2024/01/13 08:12:05;;;;;;;327.30;193.20;;;;;;;2.09;67.09;99144.64;232045;197;154378;-57
2024/01/13 08:17:08;;;;;;;16.80;11.90;;;;;;;2.20;67.22;99146.27;231981;204;142026;-57
2024/01/13 08:22:12;;;;;;;16.60;10.60;;;;;;;2.24;66.80;99137.75;232041;197;138679;-57
2024/01/13 08:27:15;;;;;;;14.50;9.30;;;;;;;2.23;66.82;99140.59;231978;204;153256;-57
2024/01/13 08:32:18;;;;;;;14.90;9.70;;;;;;;2.22;66.82;99134.50;232037;205;137662;-56
2024/01/13 08:37:22;;;;;;;13.70;9.30;;;;;;;2.16;66.87;99136.40;231973;202;138675;-57
2024/01/13 08:42:25;;;;;;;14.40;9.20;;;;;;;2.15;66.96;99135.55;232185;198;153743;-54
2024/01/13 08:47:28;;;;;;;14.50;10.10;;;;;;;2.27;67.15;99127.36;231914;197;137795;-57
2024/01/13 08:52:32;;;;;;;14.30;9.40;;;;;;;2.37;66.80;99126.02;231885;198;139288;-57
2024/01/13 08:57:35;;;;;;;17.20;10.30;;;;;;;2.45;66.61;99119.31;231910;198;153232;-58
2024/01/13 09:02:39;;;;;;;17.60;10.10;;;;;;;2.52;66.32;99122.80;232177;204;138267;-58
2024/01/13 09:07:43;;;;;;;15.70;9.70;;;;;;;2.57;66.01;99119.53;232055;198;137303;-58
2024/01/13 09:12:46;;;;;;;16.00;10.00;;;;;;;2.49;65.93;99117.98;231934;197;153305;-58
2024/01/13 09:17:50;;;;;;;15.00;9.90;;;;;;;2.35;66.08;99117.70;231873;197;138577;-58
2024/01/13 09:22:53;;;;;;;14.00;9.80;;;;;;;2.32;66.17;99110.07;232070;198;137772;-55
2024/01/13 09:27:56;;;;;;;15.90;10.50;;;;;;;2.28;66.28;99104.74;232052;198;153134;-56
2024/01/13 09:33:00;;;;;;;17.30;11.70;;;;;;;2.30;66.32;99099.08;232094;198;139953;-55
2024/01/13 09:38:03;;;;;;;16.60;10.20;;;;;;;2.34;66.37;99089.88;232112;198;138273;-56
2024/01/13 09:43:31;;;;;;;17.70;10.10;;;;;;;2.41;66.19;99088.47;231964;198;153891;-54
2024/01/13 09:48:35;;;;;;;15.00;9.80;;;;;;;2.44;66.02;99083.13;231895;205;137425;-55
2024/01/13 09:53:49;;;;;;;16.30;10.30;;;;;;;2.51;65.99;99072.25;232132;202;138074;-55
2024/01/13 09:58:52;;;;;;;17.00;10.00;;;;;;;2.54;65.42;99069.68;231825;201;153077;-56
2024/01/13 10:03:55;;;;;;;14.90;10.00;;;;;;;2.55;65.42;99060.38;232040;198;139364;-56
2024/01/13 10:09:00;;;;;;;18.50;10.70;;;;;;;3.99;82.51;99041.65;231878;204;137792;-56
2024/01/13 10:14:24;;;;;;;13.40;7.50;;;;;;;4.98;64.44;99029.06;232169;196;152981;-56
2024/01/13 10:19:29;;;;;;;15.90;10.20;;;;;;;4.33;62.59;99027.48;231972;198;138357;-56
2024/01/13 10:24:36;;;;;;;15.40;9.40;;;;;;;3.92;62.72;99026.52;231928;198;138279;-56
2024/01/13 10:29:43;;;;;;;14.60;10.30;;;;;;;3.56;63.00;99028.64;231997;198;154883;-57
2024/01/13 10:34:48;;;;;;;16.40;10.00;;;;;;;3.36;63.32;99018.08;231694;202;153929;-56
2024/01/13 10:39:52;;;;;;;17.70;9.70;;;;;;;3.27;63.46;99011.54;231939;202;137536;-56
2024/01/13 10:44:59;;;;;;;15.50;10.20;;;;;;;3.14;63.76;99016.89;232069;204;153358;-56
2024/01/13 10:50:02;;;;;;;16.60;10.10;;;;;;;3.04;63.77;99009.15;231959;198;138325;-57
2024/01/13 10:55:07;;;;;;;16.60;10.60;;;;;;;2.97;63.74;99002.70;231836;201;137887;-56
2024/01/13 11:00:13;;;;;;;16.70;10.30;;;;;;;2.89;63.92;99009.44;231834;205;155028;-56
2024/01/13 11:05:18;;;;;;;18.00;9.30;;;;;;;2.86;64.20;98999.39;231649;204;138204;-56
2024/01/13 11:10:32;;;;;;;16.00;10.50;;;;;;;2.88;63.98;98993.17;231910;197;139190;-57
2024/01/13 11:15:43;;;;;;;14.00;8.90;;;;;;;2.82;63.94;98985.29;231877;197;154076;-57
2024/01/13 11:21:03;;;;;;;15.90;9.60;;;;;;;2.79;64.12;98979.79;232066;204;137661;-58
2024/01/13 11:26:09;;;;;;;14.30;9.40;;;;;;;2.72;63.97;98969.34;232117;198;138612;-54
2024/01/13 11:31:30;;;;;;;;;;;;;;;2.71;64.17;98958.86;231896;202;154165;-57
2024/01/13 11:36:51;;;;;;;16.00;8.60;;;;;;;2.69;64.17;98954.01;232193;204;137251;-63
2024/01/13 11:41:56;;;;;;;16.10;9.30;;;;;;;2.65;64.17;98948.38;231879;202;137220;-62
2024/01/13 11:47:00;;;;;;;13.20;8.80;;;;;;;2.66;63.97;98936.77;231572;198;155639;-63
2024/01/13 11:52:06;;;;;;;15.70;9.70;;;;;;;2.67;64.15;98927.45;231897;198;138694;-62
2024/01/13 11:57:10;;;;;;;;;;;;;;;2.64;63.97;98923.00;232015;198;139091;-63
2024/01/13 12:02:14;;;;;;;14.90;9.30;;;;;;;2.64;64.13;98910.58;232127;204;154496;-63
2024/01/13 12:07:18;;;;;;;14.00;8.80;;;;;;;2.70;63.91;98905.66;231984;201;136888;-60
2024/01/13 12:12:22;;;;;;;16.90;9.40;;;;;;;2.66;63.80;98904.53;231975;199;140036;-64
2024/01/13 12:17:27;;;;;;;13.70;8.50;;;;;;;2.65;63.83;98890.90;231772;198;153774;-63
2024/01/13 12:22:30;;;;;;;13.80;8.60;;;;;;;2.66;63.69;98877.75;232070;198;137527;-63
2024/01/13 12:27:34;;;;;;;16.00;9.00;;;;;;;2.67;63.60;98880.52;231864;198;137848;-63
2024/01/13 12:32:39;;;;;;;13.60;8.40;;;;;;;2.67;63.40;98877.70;232270;198;153187;-63
2024/01/13 12:37:43;;;;;;;13.60;8.20;;;;;;;2.71;63.39;98870.05;232238;198;137926;-61
2024/01/13 12:42:47;;;;;;;21.20;12.80;;;;;;;2.80;64.47;98863.78;232047;204;137253;-58
2024/01/13 12:47:51;;;;;;;13.40;9.00;;;;;;;2.91;63.06;98854.13;232054;204;249366;-59
2024/01/13 12:52:57;;;;;;;292.80;163.10;;;;;;;2.87;63.09;98850.60;232063;198;139574;-58
2024/01/13 12:58:00;;;;;;;;;;;;;;;2.93;63.43;98841.98;232180;197;138008;-57
2024/01/13 13:03:04;;;;;;;17.30;11.20;;;;;;;3.07;63.75;98836.76;231983;198;154158;-58
2024/01/13 13:08:07;;;;;;;13.50;8.80;;;;;;;2.99;62.27;98846.32;232127;204;137461;-58
2024/01/13 13:13:11;;;;;;;14.10;8.70;;;;;;;2.85;62.27;98849.62;232074;204;137141;-58
2024/01/13 13:18:14;;;;;;;12.80;8.10;;;;;;;2.80;62.64;98840.14;231492;201;154452;-58
2024/01/13 13:23:18;;;;;;;13.70;8.50;;;;;;;2.83;62.54;98837.59;232165;204;137298;-57
2024/01/13 13:28:21;;;;;;;12.40;8.50;;;;;;;2.78;62.50;98834.96;231959;205;137398;-58
2024/01/13 13:33:26;;;;;;;49.60;31.10;;;;;;;2.71;62.62;98840.64;231803;198;154624;-58
2024/01/13 13:38:29;;;;;;;14.20;9.60;;;;;;;2.67;62.76;98836.55;232178;197;137741;-56
2024/01/13 13:43:32;;;;;;;13.10;8.50;;;;;;;2.62;62.72;98828.47;231901;198;137759;-55
2024/01/13 13:48:36;;;;;;;16.10;9.20;;;;;;;2.58;62.83;98813.71;231745;197;154305;-57
2024/01/13 13:53:41;;;;;;;14.80;9.20;;;;;;;2.65;62.68;98783.54;231957;203;137138;-56
2024/01/13 13:58:44;;;;;;;14.60;8.90;;;;;;;2.69;62.54;98777.98;231715;201;137724;-57
2024/01/13 14:03:47;;;;;;;14.50;8.60;;;;;;;2.70;62.54;98787.93;231741;197;153691;-57
2024/01/13 14:08:50;;;;;;;13.10;8.40;;;;;;;2.71;62.40;98797.36;231866;205;137170;-57
2024/01/13 14:13:54;;;;;;;11.80;7.80;;;;;;;2.76;62.40;98784.94;231962;201;137488;-56
2024/01/13 14:18:57;;;;;;;14.40;7.90;;;;;;;2.78;61.96;98781.52;231930;196;153033;-57
2024/01/13 14:24:01;;;;;;;11.60;7.40;;;;;;;2.82;61.83;98796.82;231742;198;138928;-55
2024/01/13 14:29:06;;;;;;;13.10;7.40;;;;;;;2.83;61.61;98792.21;231940;204;137486;-56
2024/01/13 14:34:09;;;;;;;12.90;8.60;;;;;;;2.87;62.17;98769.13;231989;198;152349;-54
2024/01/13 14:39:16;;;;;;;11.60;7.70;;;;;;;2.82;61.28;98751.61;232089;204;138596;-57
2024/01/13 14:44:19;;;;;;;109.60;66.60;;;;;;;2.78;61.29;98744.04;232165;204;138528;-57
2024/01/13 14:49:23;;;;;;;17.70;11.80;;;;;;;2.93;62.35;98745.98;232033;201;153353;-58
2024/01/13 14:54:26;;;;;;;12.20;7.70;;;;;;;2.89;60.98;98739.27;232000;201;137767;-56
2024/01/13 14:59:31;;;;;;;14.60;8.40;;;;;;;2.83;60.95;98725.30;231888;198;138534;-56
2024/01/13 15:04:35;;;;;;;12.90;7.80;;;;;;;2.80;61.14;98729.40;231969;204;154000;-56
2024/01/13 15:09:38;;;;;;;12.10;7.30;;;;;;;2.79;60.94;98732.62;232127;198;141742;-59
2024/01/13 15:14:42;;;;;;;12.10;7.70;;;;;;;2.78;60.63;98729.84;232079;201;138662;-56
2024/01/13 15:19:46;;;;;;;14.00;8.10;;;;;;;2.69;60.76;98727.71;232235;204;152960;-57
2024/01/13 15:24:49;;;;;;;12.40;8.10;;;;;;;2.71;60.70;98722.91;231742;204;138229;-57
2024/01/13 15:30:13;;;;;;;12.30;8.20;;;;;;;2.69;60.88;98700.04;231918;198;139758;-58
2024/01/13 15:35:17;;;;;;;14.20;8.00;;;;;;;2.69;60.91;98687.98;231860;205;154029;-58
2024/01/13 15:40:23;;;;;;;12.70;7.80;;;;;;;2.66;60.78;98689.29;232072;204;141367;-59
2024/01/13 15:45:27;;;;;;;12.10;8.80;;;;;;;2.63;61.02;98692.91;231920;198;137616;-58
2024/01/13 15:50:31;;;;;;;13.20;8.60;;;;;;;2.63;60.97;98692.56;231875;205;153303;-59
2024/01/13 15:55:36;;;;;;;17.10;9.80;;;;;;;2.63;60.98;98695.90;231854;204;138310;-58
2024/01/13 16:00:40;;;;;;;15.70;9.10;;;;;;;2.59;60.90;98690.06;231905;204;139571;-59
2024/01/13 16:05:44;;;;;;;11.30;7.50;;;;;;;2.48;60.80;98680.31;231903;198;153809;-60
2024/01/13 16:10:47;;;;;;;156.30;97.50;;;;;;;2.45;61.30;98674.43;231712;198;137928;-59
2024/01/13 16:15:53;;;;;;;12.10;8.30;;;;;;;2.51;61.60;98670.55;232034;198;139699;-60
2024/01/13 16:20:56;;;;;;;7.50;5.70;;;;;;;2.48;60.80;98672.23;231036;204;152967;-58
2024/01/13 16:26:00;;;;;;;7.20;4.70;;;;;;;2.46;60.35;98667.77;231491;205;138272;-60
2024/01/13 16:31:03;;;;;;;8.20;5.00;;;;;;;2.43;60.38;98658.92;231684;205;137358;-59
2024/01/13 16:36:08;;;;;;;5.80;4.00;;;;;;;2.39;60.15;98661.52;231639;202;153310;-58
2024/01/13 16:41:12;;;;;;;233.80;140.70;;;;;;;2.35;61.14;98654.13;231739;198;137237;-58
2024/01/13 16:46:15;;;;;;;9.50;5.80;;;;;;;2.49;61.15;98653.98;231850;198;138315;-60
2024/01/13 16:51:18;;;;;;;6.10;4.50;;;;;;;2.48;60.18;98645.99;231525;205;153439;-60
2024/01/13 16:56:22;;;;;;;6.80;3.90;;;;;;;2.47;59.50;98652.66;231608;206;137291;-59
2024/01/13 17:01:25;;;;;;;6.30;3.90;;;;;;;2.43;59.24;98637.23;231852;198;136978;-59
2024/01/13 17:06:28;;;;;;;7.00;4.20;;;;;;;2.40;59.15;98614.23;231724;199;153405;-58
2024/01/13 17:11:32;;;;;;;8.70;5.40;;;;;;;2.36;59.53;98596.34;231681;198;137618;-57
2024/01/13 17:16:35;;;;;;;5.20;3.90;;;;;;;2.31;59.28;98602.80;231764;197;138518;-58
2024/01/13 17:21:38;;;;;;;6.50;4.00;;;;;;;2.25;59.43;98620.54;231622;198;153592;-59
2024/01/13 17:26:42;;;;;;;6.70;4.40;;;;;;;2.18;59.65;98617.83;231459;203;138172;-59
2024/01/13 17:31:45;;;;;;;7.20;4.50;;;;;;;2.18;59.77;98613.27;231668;204;138253;-59
2024/01/13 17:36:49;;;;;;;8.00;4.50;;;;;;;2.13;59.84;98607.84;231627;198;153588;-59
2024/01/13 17:41:52;;;;;;;6.60;4.50;;;;;;;2.16;59.80;98605.48;231495;197;138881;-59
2024/01/13 17:46:56;;;;;;;7.90;5.40;;;;;;;2.15;59.81;98590.98;231762;198;138547;-58
2024/01/13 17:51:59;;;;;;;8.70;4.80;;;;;;;2.13;60.02;98567.75;231766;203;153756;-61
2024/01/13 17:57:03;;;;;;;11.10;7.20;;;;;;;2.26;60.68;98566.09;231639;198;137995;-57
2024/01/13 18:02:11;;;;;;;7.30;5.10;;;;;;;2.40;59.84;98571.34;231525;206;138788;-60
2024/01/13 18:07:17;;;;;;;7.20;4.90;;;;;;;2.32;59.48;98562.88;231477;205;153287;-58
2024/01/13 18:12:20;;;;;;;6.60;4.50;;;;;;;2.22;59.78;98547.66;231676;198;142387;-58
2024/01/13 18:17:24;;;;;;;6.50;4.70;;;;;;;2.20;59.62;98536.04;231785;202;137207;-58
2024/01/13 18:22:27;;;;;;;8.70;4.80;;;;;;;2.19;59.85;98539.91;231762;199;152959;-60
2024/01/13 18:27:30;;;;;;;9.00;4.80;;;;;;;2.10;59.65;98535.30;231637;205;137727;-60
2024/01/13 18:32:34;;;;;;;7.90;4.50;;;;;;;2.07;59.81;98533.50;231735;205;138711;-57
2024/01/13 18:37:38;;;;;;;6.60;5.00;;;;;;;2.03;60.04;98521.92;231548;201;153928;-57
2024/01/13 18:42:41;;;;;;;7.90;4.70;;;;;;;2.02;60.25;98507.95;231665;205;147417;-59
2024/01/13 18:47:44;;;;;;;8.30;5.10;;;;;;;2.03;60.06;98501.09;231625;199;138191;-61
2024/01/13 18:52:48;;;;;;;8.50;5.00;;;;;;;2.02;60.21;98492.20;231766;198;153032;-59
2024/01/13 18:57:51;;;;;;;113.10;71.20;;;;;;;2.03;60.14;98485.69;231560;198;137392;-60
2024/01/13 19:02:55;;;;;;;15.00;8.50;;;;;;;2.08;60.26;98479.57;231768;198;138216;-60
2024/01/13 19:07:58;;;;;;;8.30;5.20;;;;;;;2.09;59.95;98483.92;231743;198;154626;-61
2024/01/13 19:13:03;;;;;;;7.00;4.60;;;;;;;2.05;59.85;98485.14;231620;205;137209;-59
2024/01/13 19:18:06;;;;;;;6.10;4.30;;;;;;;2.02;59.72;98487.16;231726;198;137552;-61
2024/01/13 19:23:10;;;;;;;8.30;5.10;;;;;;;1.97;60.02;98486.83;231499;198;154471;-61
2024/01/13 19:28:13;;;;;;;8.90;4.70;;;;;;;1.98;59.97;98490.43;231216;206;138470;-58
2024/01/13 19:33:16;;;;;;;13.30;9.00;;;;;;;2.10;60.77;98479.34;231763;203;138449;-60
2024/01/13 19:38:20;;;;;;;8.90;5.60;;;;;;;2.13;59.62;98474.48;231703;199;153343;-57
2024/01/13 19:43:23;;;;;;;9.40;5.70;;;;;;;2.16;60.30;98476.85;231651;197;138638;-59
2024/01/13 19:48:27;;;;;;;6.90;4.70;;;;;;;2.16;59.51;98463.73;231714;198;137667;-59
2024/01/13 19:53:31;;;;;;;7.10;4.60;;;;;;;2.08;59.28;98454.39;231701;205;153305;-60
2024/01/13 19:58:34;;;;;;;7.90;5.00;;;;;;;2.02;59.54;98441.15;231812;205;137317;-60
2024/01/13 20:03:38;;;;;;;8.80;5.10;;;;;;;2.00;59.40;98438.08;231676;198;138558;-59
2024/01/13 20:08:41;;;;;;;8.60;5.00;;;;;;;2.02;59.43;98431.34;231799;201;154403;-60
2024/01/13 20:13:44;;;;;;;7.30;5.00;;;;;;;1.99;59.26;98426.39;231857;202;138399;-59
2024/01/13 20:18:48;;;;;;;9.30;5.30;;;;;;;1.96;59.20;98419.13;231743;199;138272;-59
2024/01/13 20:23:52;;;;;;;7.70;4.80;;;;;;;1.97;59.23;98413.02;231724;197;153344;-59
2024/01/13 20:28:57;;;;;;;8.10;4.90;;;;;;;1.86;59.15;98412.50;231702;198;137694;-59
2024/01/13 20:34:01;;;;;;;18.60;11.00;;;;;;;1.79;59.47;98405.61;231545;198;138663;-59
2024/01/13 20:39:05;;;;;;;7.70;5.00;;;;;;;1.80;59.37;98401.19;231770;198;153284;-59
2024/01/13 20:44:09;;;;;;;8.70;5.00;;;;;;;1.82;59.26;98388.89;231670;198;137059;-60
2024/01/13 20:49:12;;;;;;;9.80;4.90;;;;;;;1.76;59.22;98387.34;231664;198;138400;-59
2024/01/13 20:54:15;;;;;;;9.00;5.60;;;;;;;1.70;59.25;98374.49;231894;198;154202;-59
2024/01/13 20:59:20;;;;;;;9.80;5.50;;;;;;;1.75;59.52;98359.96;231750;198;138197;-59
2024/01/13 21:04:23;;;;;;;7.90;5.30;;;;;;;1.80;59.38;98358.55;231826;198;137382;-59
2024/01/13 21:09:26;;;;;;;8.00;5.30;;;;;;;1.83;59.28;98361.05;231748;198;153992;-59
2024/01/13 21:14:30;;;;;;;12.20;7.90;;;;;;;1.84;59.28;98351.72;231746;198;137108;-58
2024/01/13 21:19:33;;;;;;;9.80;6.10;;;;;;;1.85;59.03;98343.65;231864;198;137646;-59
2024/01/13 21:24:37;;;;;;;11.40;6.20;;;;;;;1.83;59.05;98331.33;231809;198;152948;-60
2024/01/13 21:29:40;;;;;;;8.40;5.70;;;;;;;1.81;58.90;98316.16;231695;202;137888;-59
2024/01/13 21:34:44;;;;;;;10.00;5.70;;;;;;;1.79;58.78;98309.09;231964;199;137862;-59
2024/01/13 21:39:47;;;;;;;8.80;5.80;;;;;;;1.72;58.79;98302.01;231699;201;153132;-59
2024/01/13 21:44:50;;;;;;;9.60;5.80;;;;;;;1.67;58.84;98297.45;231792;205;137956;-58
2024/01/13 21:49:54;;;;;;;8.20;5.60;;;;;;;1.61;58.86;98286.86;231685;198;138214;-59
2024/01/13 21:54:57;;;;;;;8.40;5.90;;;;;;;1.54;59.10;98282.05;231734;202;154378;-58
2024/01/13 22:00:00;;;;;;;8.70;6.10;;;;;;;1.51;59.07;98273.96;231574;202;138700;-58
2024/01/13 22:05:14;;;;;;;8.70;6.00;;;;;;;1.48;59.22;98263.40;231712;197;137485;-59
2024/01/13 22:10:18;;;;;;;9.80;6.00;;;;;;;1.45;59.27;98261.59;231839;198;153111;-57
2024/01/13 22:15:22;;;;;;;9.60;6.50;;;;;;;1.41;59.23;98267.35;231786;198;136976;-59
2024/01/13 22:20:26;;;;;;;8.20;5.90;;;;;;;1.39;59.54;98258.33;231791;199;137739;-59
2024/01/13 22:25:30;;;;;;;8.30;5.90;;;;;;;1.42;59.37;98248.42;231740;202;153312;-59
2024/01/13 22:30:34;;;;;;;8.50;5.20;;;;;;;1.41;59.50;98247.23;231749;205;138182;-59
2024/01/13 22:35:38;;;;;;;8.00;5.50;;;;;;;1.44;59.44;98247.48;231734;198;138026;-59
2024/01/13 22:40:42;;;;;;;9.60;5.70;;;;;;;1.42;59.53;98247.20;231960;198;154085;-60
2024/01/13 22:45:54;;;;;;;8.40;5.50;;;;;;;1.41;59.64;98241.48;231833;198;140648;-58
2024/01/13 22:50:57;;;;;;;10.40;6.50;;;;;;;1.40;59.90;98230.85;231396;202;138697;-59
2024/01/13 22:56:02;;;;;;;8.70;5.60;;;;;;;1.44;59.85;98223.91;231621;202;153607;-58
2024/01/13 23:01:09;;;;;;;8.80;6.10;;;;;;;1.46;59.84;98224.71;231654;197;154201;-59
2024/01/13 23:06:13;;;;;;;9.90;6.30;;;;;;;1.46;59.88;98228.19;231679;205;137493;-59
2024/01/13 23:11:16;;;;;;;9.60;5.90;;;;;;;1.47;60.14;98214.38;231728;198;154334;-60
2024/01/13 23:16:20;;;;;;;10.40;6.70;;;;;;;1.46;60.57;98203.20;231822;202;137474;-59
2024/01/13 23:21:24;;;;;;;10.00;6.10;;;;;;;1.42;61.18;98195.12;231650;198;138375;-60
2024/01/13 23:26:28;;;;;;;10.70;6.50;;;;;;;1.35;61.73;98185.42;231617;203;154715;-60
2024/01/13 23:31:31;;;;;;;10.00;5.70;;;;;;;1.37;61.66;98181.53;231542;198;140331;-59